Time;durP1;ratioP1;P1;durP2;ratioP2;P2;SDS_P1;SDS_P2;PMS_P1;PMS_P2;Temp;Humidity;BMP_temperature;BMP_pressure;BME280_temperature;BME280_humidity;BME280_pressure;Samples;Min_cycle;Max_cycle;Signal;HPM_P1;HPM_P2
2021/11/26 00:01:37;;;;;;;92.07;32.70;;;4.50;99.90;;;;;;5008105;28;20045;-54
2021/11/26 00:04:04;;;;;;;85.50;31.98;;;4.50;99.90;;;;;;4995592;28;20042;-56
2021/11/26 00:06:31;;;;;;;86.10;33.35;;;4.50;99.90;;;;;;4996625;28;20388;-56
2021/11/26 00:08:57;;;;;;;80.55;33.40;;;4.50;99.90;;;;;;5000875;28;20077;-53
2021/11/26 00:11:23;;;;;;;84.82;33.42;;;4.50;99.90;;;;;;5000915;28;20033;-58
2021/11/26 00:13:59;;;;;;;86.25;31.80;;;4.50;99.90;;;;;;5004802;28;20112;-54
2021/11/26 00:16:31;;;;;;;85.32;33.40;;;4.50;99.90;;;;;;5010638;28;20036;-58
2021/11/26 00:18:59;;;;;;;84.57;33.25;;;4.50;99.90;;;;;;5012185;28;20053;-56
2021/11/26 00:21:24;;;;;;;96.63;34.33;;;4.50;99.90;;;;;;5010113;28;20553;-56
2021/11/26 00:23:50;;;;;;;88.43;35.33;;;4.50;99.90;;;;;;5006237;28;20030;-56
2021/11/26 00:26:15;;;;;;;87.32;33.55;;;4.60;99.90;;;;;;5010762;28;20022;-56
2021/11/26 00:28:41;;;;;;;83.90;34.03;;;4.60;99.90;;;;;;5014589;28;20029;-56
2021/11/26 00:31:07;;;;;;;84.18;34.95;;;4.60;99.90;;;;;;5005512;28;20034;-58
2021/11/26 00:33:33;;;;;;;88.63;35.72;;;4.60;99.90;;;;;;5011093;28;20113;-57
2021/11/26 00:35:59;;;;;;;91.50;33.78;;;4.60;99.90;;;;;;4979577;28;20049;-58
2021/11/26 00:38:24;;;;;;;95.32;34.40;;;4.60;99.90;;;;;;5004722;28;20028;-53
2021/11/26 00:40:50;;;;;;;109.88;34.53;;;4.60;99.90;;;;;;5018917;28;20088;-59
2021/11/26 00:43:16;;;;;;;107.55;35.80;;;4.50;99.90;;;;;;4992292;28;20053;-54
2021/11/26 00:45:41;;;;;;;98.95;36.92;;;4.50;99.90;;;;;;5003252;28;20105;-56
2021/11/26 00:48:07;;;;;;;113.00;37.00;;;4.50;99.90;;;;;;5001681;28;20026;-55
2021/11/26 00:50:33;;;;;;;106.50;37.35;;;4.50;99.90;;;;;;4997416;28;20602;-51
2021/11/26 00:52:59;;;;;;;106.57;37.85;;;4.50;99.90;;;;;;4992534;28;20031;-56
2021/11/26 00:55:24;;;;;;;94.93;38.33;;;4.50;99.90;;;;;;4992903;28;20022;-55
2021/11/26 00:57:50;;;;;;;115.90;40.00;;;4.50;99.90;;;;;;5002124;28;20056;-58
2021/11/26 01:00:18;;;;;;;109.88;38.67;;;4.50;99.90;;;;;;4997593;28;20054;-57
2021/11/26 01:02:44;;;;;;;103.35;38.40;;;4.50;99.90;;;;;;4999230;28;20021;-56
2021/11/26 01:05:11;;;;;;;114.68;40.35;;;4.50;99.90;;;;;;5004385;28;20023;-58
2021/11/26 01:07:37;;;;;;;105.53;39.90;;;4.50;99.90;;;;;;5007880;28;20029;-55
2021/11/26 01:10:05;;;;;;;109.57;40.22;;;4.50;99.90;;;;;;5005275;28;20019;-56
2021/11/26 01:12:31;;;;;;;98.28;37.40;;;4.50;99.90;;;;;;5008163;28;20352;-57
2021/11/26 01:14:57;;;;;;;102.22;40.10;;;4.50;99.90;;;;;;5014486;28;20117;-57
2021/11/26 01:17:23;;;;;;;107.80;37.30;;;4.50;99.90;;;;;;4973453;28;20023;-53
2021/11/26 01:19:48;;;;;;;107.88;41.03;;;4.50;99.90;;;;;;5007373;28;20060;-56
2021/11/26 01:22:15;;;;;;;93.15;36.67;;;4.60;99.90;;;;;;5001101;28;20026;-56
2021/11/26 01:24:41;;;;;;;100.03;39.28;;;4.60;99.90;;;;;;5007025;28;20036;-57
2021/11/26 01:27:07;;;;;;;88.00;36.75;;;4.60;99.90;;;;;;5017499;28;20030;-55
2021/11/26 01:29:36;;;;;;;97.55;37.75;;;4.60;99.90;;;;;;5018869;28;20033;-53
2021/11/26 01:32:03;;;;;;;96.03;36.25;;;4.60;99.90;;;;;;5008298;28;20057;-55
2021/11/26 01:34:29;;;;;;;104.05;41.03;;;4.60;99.90;;;;;;5018145;28;20034;-55
2021/11/26 01:36:55;;;;;;;110.53;39.55;;;4.60;99.90;;;;;;5006768;28;20026;-47
2021/11/26 01:39:21;;;;;;;106.15;36.67;;;4.60;99.90;;;;;;5014676;28;20029;-56
2021/11/26 01:41:47;;;;;;;100.32;36.83;;;4.60;99.90;;;;;;5011028;28;20108;-56
2021/11/26 01:44:12;;;;;;;94.13;39.70;;;4.60;99.90;;;;;;5007030;28;20034;-54
2021/11/26 01:46:40;;;;;;;102.00;37.47;;;4.60;99.90;;;;;;5009822;28;20030;-55
2021/11/26 01:49:06;;;;;;;107.32;35.90;;;4.60;99.90;;;;;;5017799;28;20394;-54
2021/11/26 01:51:32;;;;;;;94.80;38.88;;;4.60;99.90;;;;;;5004317;28;20022;-54
2021/11/26 01:53:57;;;;;;;104.88;37.85;;;4.60;99.90;;;;;;5022634;28;20025;-55
2021/11/26 01:56:25;;;;;;;103.38;37.88;;;4.60;99.90;;;;;;5013021;28;20072;-57
2021/11/26 01:58:51;;;;;;;95.85;36.03;;;4.60;99.90;;;;;;5017366;28;20022;-56
2021/11/26 02:01:17;;;;;;;105.50;36.67;;;4.60;99.90;;;;;;5004587;28;20400;-54
2021/11/26 02:03:42;;;;;;;112.93;37.03;;;4.60;99.90;;;;;;5002533;28;20149;-54
2021/11/26 02:06:08;;;;;;;107.45;37.30;;;4.50;99.90;;;;;;5002411;28;20042;-56
2021/11/26 02:08:34;;;;;;;97.82;35.45;;;4.50;99.90;;;;;;5014155;28;20080;-56
2021/11/26 02:10:59;;;;;;;93.88;34.65;;;4.50;99.90;;;;;;5005988;28;20073;-57
2021/11/26 02:13:26;;;;;;;101.00;35.60;;;4.50;99.90;;;;;;5006463;28;20079;-58
2021/11/26 02:15:53;;;;;;;96.47;37.30;;;4.50;99.90;;;;;;5005590;28;20049;-55
2021/11/26 02:18:19;;;;;;;97.28;35.28;;;4.50;99.90;;;;;;5002802;28;20083;-54
2021/11/26 02:20:45;;;;;;;88.57;34.80;;;4.50;99.90;;;;;;5010773;28;20030;-52
2021/11/26 02:23:11;;;;;;;94.30;33.50;;;4.50;99.90;;;;;;5004790;28;20053;-56
2021/11/26 02:25:37;;;;;;;102.97;33.55;;;4.50;99.90;;;;;;5018598;28;20026;-56
2021/11/26 02:28:05;;;;;;;98.05;34.97;;;4.50;99.90;;;;;;5018935;28;20041;-57
2021/11/26 02:30:31;;;;;;;84.50;31.52;;;4.50;99.90;;;;;;5008895;28;20041;-57
2021/11/26 02:32:59;;;;;;;92.75;33.58;;;4.50;99.90;;;;;;5013442;28;20036;-56
2021/11/26 02:35:26;;;;;;;82.80;32.17;;;4.50;99.90;;;;;;5003473;28;20080;-58
2021/11/26 02:37:52;;;;;;;88.65;33.70;;;4.50;99.90;;;;;;5007672;28;20034;-55
2021/11/26 02:40:22;;;;;;;87.43;32.17;;;4.40;99.90;;;;;;5008779;28;20088;-57
2021/11/26 02:42:54;;;;;;;97.57;34.05;;;4.40;99.90;;;;;;5019989;28;20036;-55
2021/11/26 02:45:20;;;;;;;91.40;32.78;;;4.40;99.90;;;;;;5009113;28;20025;-56
2021/11/26 02:47:47;;;;;;;103.05;33.75;;;4.40;99.90;;;;;;5008736;28;20028;-55
2021/11/26 02:50:15;;;;;;;102.03;33.70;;;4.40;99.90;;;;;;5012283;28;20613;-56
2021/11/26 02:52:41;;;;;;;72.50;27.65;;;4.40;99.90;;;;;;5006640;28;20115;-55
2021/11/26 02:55:09;;;;;;;83.28;27.65;;;4.40;99.90;;;;;;5014708;28;20678;-51
2021/11/26 02:57:35;;;;;;;82.50;28.95;;;4.40;99.90;;;;;;5009366;28;20040;-56
2021/11/26 03:00:02;;;;;;;89.65;28.60;;;4.40;99.90;;;;;;5007288;28;20030;-56
2021/11/26 03:02:28;;;;;;;74.15;26.15;;;4.40;99.90;;;;;;5016096;28;20017;-57
2021/11/26 03:04:54;;;;;;;79.82;27.08;;;4.40;99.90;;;;;;5009977;28;20056;-54
2021/11/26 03:07:19;;;;;;;60.03;24.73;;;4.40;99.90;;;;;;5001916;28;20081;-57
2021/11/26 03:09:45;;;;;;;67.30;25.58;;;4.40;99.90;;;;;;5016844;28;20037;-58
2021/11/26 03:12:11;;;;;;;69.63;26.30;;;4.40;99.90;;;;;;5017936;28;20557;-55
2021/11/26 03:14:37;;;;;;;67.30;25.10;;;4.40;99.90;;;;;;5014177;28;20061;-58
2021/11/26 03:17:03;;;;;;;66.55;25.50;;;4.30;99.90;;;;;;5013429;28;20026;-56
2021/11/26 03:19:29;;;;;;;70.10;26.67;;;4.30;99.90;;;;;;5017722;28;20044;-57
2021/11/26 03:21:55;;;;;;;74.20;27.17;;;4.30;99.90;;;;;;5018978;28;20671;-56
2021/11/26 03:24:20;;;;;;;65.40;24.10;;;4.30;99.90;;;;;;5014812;28;20030;-57
2021/11/26 03:26:46;;;;;;;67.18;25.65;;;4.40;99.90;;;;;;5018358;28;20032;-54
2021/11/26 03:29:11;;;;;;;68.63;23.90;;;4.40;99.90;;;;;;5008446;28;20029;-56
2021/11/26 03:31:38;;;;;;;68.43;25.80;;;4.40;99.90;;;;;;5005422;28;20112;-54
2021/11/26 03:34:04;;;;;;;60.85;24.25;;;4.40;99.90;;;;;;5012937;28;20026;-55
2021/11/26 03:36:30;;;;;;;67.63;22.60;;;4.40;99.90;;;;;;5002846;28;20041;-56
2021/11/26 03:38:56;;;;;;;71.75;25.55;;;4.40;99.90;;;;;;5011466;28;20033;-57
2021/11/26 03:41:21;;;;;;;56.58;22.13;;;4.40;99.90;;;;;;5007279;28;20037;-56
2021/11/26 03:43:47;;;;;;;64.38;23.00;;;4.30;99.90;;;;;;5011106;28;20522;-56
2021/11/26 03:46:13;;;;;;;63.30;23.70;;;4.30;99.90;;;;;;5007566;28;20025;-56
2021/11/26 03:48:39;;;;;;;63.95;23.15;;;4.30;99.90;;;;;;5008928;28;20034;-57
2021/11/26 03:51:04;;;;;;;62.08;21.38;;;4.30;99.90;;;;;;5011377;28;20148;-55
2021/11/26 03:53:30;;;;;;;56.25;23.50;;;4.30;99.90;;;;;;4999276;28;20030;-52
2021/11/26 03:55:57;;;;;;;71.95;22.95;;;4.30;99.90;;;;;;5006781;28;20029;-55
2021/11/26 03:58:23;;;;;;;65.72;22.60;;;4.30;99.90;;;;;;5012069;28;20115;-56
2021/11/26 04:00:48;;;;;;;68.03;22.42;;;4.30;99.90;;;;;;5005852;28;20093;-52
2021/11/26 04:03:14;;;;;;;60.53;22.35;;;4.30;99.90;;;;;;5014077;28;20040;-54
2021/11/26 04:05:39;;;;;;;55.13;19.55;;;4.30;99.90;;;;;;5011772;28;20032;-57
2021/11/26 04:08:05;;;;;;;67.40;21.08;;;4.30;99.90;;;;;;5006546;28;20101;-52
2021/11/26 04:10:31;;;;;;;63.28;21.77;;;4.30;99.90;;;;;;5004817;28;20026;-59
2021/11/26 04:12:57;;;;;;;58.85;20.27;;;4.30;99.90;;;;;;5014288;28;20096;-56
2021/11/26 04:15:23;;;;;;;60.28;19.98;;;4.30;99.90;;;;;;4998398;28;20511;-57
2021/11/26 04:17:50;;;;;;;56.28;20.05;;;4.30;99.90;;;;;;5007786;28;20084;-59
2021/11/26 04:20:18;;;;;;;59.22;20.55;;;4.30;99.90;;;;;;5000463;28;20041;-56
2021/11/26 04:22:45;;;;;;;56.83;20.65;;;4.30;99.90;;;;;;4998406;28;20049;-54
2021/11/26 04:25:14;;;;;;;53.72;19.13;;;4.30;99.90;;;;;;5002862;28;20109;-57
2021/11/26 04:27:41;;;;;;;56.28;20.67;;;4.30;99.90;;;;;;5014843;28;20026;-57
2021/11/26 04:30:08;;;;;;;51.08;19.13;;;4.30;99.90;;;;;;5007092;28;20026;-56
2021/11/26 04:32:34;;;;;;;53.88;18.13;;;4.30;99.90;;;;;;5001556;28;20027;-55
2021/11/26 04:35:00;;;;;;;51.72;18.48;;;4.30;99.90;;;;;;5010149;28;20026;-56
2021/11/26 04:37:26;;;;;;;49.70;19.55;;;4.20;99.90;;;;;;5001546;28;20061;-56
2021/11/26 04:39:52;;;;;;;53.20;18.10;;;4.20;99.90;;;;;;5014995;28;20053;-58
2021/11/26 04:42:17;;;;;;;49.95;18.27;;;4.20;99.90;;;;;;5017608;28;20033;-56
2021/11/26 04:44:43;;;;;;;44.90;17.05;;;4.20;99.90;;;;;;5019630;28;20025;-56
2021/11/26 04:47:09;;;;;;;46.22;15.68;;;4.20;99.90;;;;;;5009705;28;20032;-56
2021/11/26 04:49:35;;;;;;;40.08;14.98;;;4.20;99.90;;;;;;5020210;28;20512;-56
2021/11/26 04:52:01;;;;;;;49.92;16.50;;;4.20;99.90;;;;;;5001515;28;20037;-57
2021/11/26 04:54:26;;;;;;;40.03;16.27;;;4.20;99.90;;;;;;5005114;28;20399;-57
2021/11/26 04:56:52;;;;;;;35.42;13.98;;;4.20;99.90;;;;;;5007890;28;20037;-57
2021/11/26 04:59:18;;;;;;;42.95;15.93;;;4.20;99.90;;;;;;5007443;28;20146;-56
2021/11/26 05:01:43;;;;;;;41.60;17.02;;;4.20;99.90;;;;;;5002208;28;20030;-57
2021/11/26 05:04:09;;;;;;;47.97;17.13;;;4.10;99.90;;;;;;5007800;28;20499;-58
2021/11/26 05:06:36;;;;;;;41.75;14.43;;;4.10;99.90;;;;;;5005446;28;20101;-58
2021/11/26 05:09:07;;;;;;;41.17;15.68;;;4.10;99.90;;;;;;5012888;28;20018;-57
2021/11/26 05:11:34;;;;;;;38.33;14.13;;;4.10;99.90;;;;;;5007399;28;20403;-55
2021/11/26 05:14:02;;;;;;;42.10;14.60;;;4.10;99.90;;;;;;5007346;28;20057;-57
2021/11/26 05:16:28;;;;;;;32.08;14.05;;;4.10;99.90;;;;;;5001701;28;20025;-57
2021/11/26 05:18:53;;;;;;;38.67;14.48;;;4.10;99.90;;;;;;4995846;28;20034;-55
2021/11/26 05:21:19;;;;;;;47.17;15.40;;;4.10;99.90;;;;;;5002804;28;20507;-57
2021/11/26 05:23:44;;;;;;;33.40;15.25;;;4.10;99.90;;;;;;5004813;28;20029;-56
2021/11/26 05:26:12;;;;;;;42.33;14.68;;;4.10;99.90;;;;;;5008614;28;20164;-55
2021/11/26 05:28:38;;;;;;;46.75;16.00;;;4.10;99.90;;;;;;5006757;28;20025;-57
2021/11/26 05:31:03;;;;;;;42.10;14.65;;;4.10;99.90;;;;;;5003074;28;20037;-57
2021/11/26 05:33:29;;;;;;;38.85;14.18;;;4.10;99.90;;;;;;5003423;28;20034;-57
2021/11/26 05:35:55;;;;;;;42.42;15.07;;;4.00;99.90;;;;;;4998044;28;20058;-58
2021/11/26 05:38:21;;;;;;;32.55;13.20;;;4.00;99.90;;;;;;5004489;28;20057;-56
2021/11/26 05:40:46;;;;;;;35.15;14.10;;;4.10;99.90;;;;;;5010418;28;20027;-57
2021/11/26 05:43:13;;;;;;;36.72;14.25;;;4.00;99.90;;;;;;5019816;28;20112;-56
2021/11/26 05:45:39;;;;;;;36.45;12.85;;;4.00;99.90;;;;;;5011261;28;20026;-56
2021/11/26 05:48:05;;;;;;;39.25;14.30;;;4.00;99.90;;;;;;5015252;28;20071;-57
2021/11/26 05:50:30;;;;;;;41.58;16.00;;;4.00;99.90;;;;;;5008256;28;20475;-54
2021/11/26 05:52:56;;;;;;;48.38;15.68;;;4.10;99.90;;;;;;5005881;28;20168;-59
2021/11/26 05:55:26;;;;;;;30.23;12.98;;;4.00;99.90;;;;;;5004529;28;20033;-56
2021/11/26 05:57:52;;;;;;;39.90;13.27;;;4.00;99.90;;;;;;5009473;28;20034;-55
2021/11/26 06:00:19;;;;;;;33.72;14.52;;;4.00;99.90;;;;;;5003367;28;20376;-57
2021/11/26 06:02:45;;;;;;;33.15;14.32;;;4.00;99.90;;;;;;5006939;28;20101;-59
2021/11/26 06:05:12;;;;;;;34.63;15.10;;;4.00;99.90;;;;;;5001029;28;20065;-57
2021/11/26 06:07:38;;;;;;;62.92;25.70;;;4.00;99.90;;;;;;5009997;28;20495;-56
2021/11/26 06:10:06;;;;;;;83.85;33.95;;;4.00;99.90;;;;;;5014452;28;20049;-57
2021/11/26 06:12:32;;;;;;;54.80;20.90;;;4.00;99.90;;;;;;5000444;28;20521;-59
2021/11/26 06:14:57;;;;;;;82.90;30.33;;;4.00;99.90;;;;;;5003164;28;20058;-55
2021/11/26 06:17:23;;;;;;;73.70;26.60;;;4.00;99.90;;;;;;5000316;28;20030;-55
2021/11/26 06:19:48;;;;;;;203.43;55.13;;;4.00;99.90;;;;;;5006042;28;20380;-57
2021/11/26 06:22:14;;;;;;;167.90;58.70;;;4.00;99.90;;;;;;5007600;28;20492;-57
2021/11/26 06:24:40;;;;;;;58.50;23.17;;;4.00;99.90;;;;;;5001882;28;20085;-57
2021/11/26 06:27:07;;;;;;;87.32;38.80;;;4.00;99.90;;;;;;5004152;28;20081;-56
2021/11/26 06:29:33;;;;;;;213.27;98.38;;;4.00;99.90;;;;;;5001379;28;20066;-54
2021/11/26 06:31:59;;;;;;;117.90;55.60;;;4.00;99.90;;;;;;5005194;28;20038;-59
2021/11/26 06:34:24;;;;;;;90.50;42.20;;;3.90;99.90;;;;;;5007634;28;20519;-54
2021/11/26 06:36:50;;;;;;;44.25;25.25;;;4.00;99.90;;;;;;5015245;28;20033;-56
2021/11/26 06:39:16;;;;;;;41.70;23.98;;;4.00;99.90;;;;;;5011523;28;20049;-57
2021/11/26 06:41:42;;;;;;;45.92;22.65;;;4.00;99.90;;;;;;5014140;28;20445;-59
2021/11/26 06:44:07;;;;;;;35.67;18.38;;;4.00;99.90;;;;;;5009243;28;20035;-58
2021/11/26 06:46:33;;;;;;;38.17;18.50;;;4.00;99.90;;;;;;5003737;28;20078;-59
2021/11/26 06:48:58;;;;;;;27.92;13.75;;;4.00;99.90;;;;;;4999760;28;20038;-57
2021/11/26 06:51:24;;;;;;;56.42;24.45;;;4.00;99.90;;;;;;4999133;28;20061;-58
2021/11/26 06:53:50;;;;;;;33.95;15.10;;;4.00;99.90;;;;;;5002320;28;20056;-58
2021/11/26 06:56:15;;;;;;;55.83;29.23;;;4.00;99.90;;;;;;5005313;28;20118;-57
2021/11/26 06:58:41;;;;;;;34.13;15.18;;;4.00;99.90;;;;;;5026573;28;20026;-57
2021/11/26 07:01:07;;;;;;;27.83;12.88;;;4.00;99.90;;;;;;4998565;28;20037;-57
2021/11/26 07:03:32;;;;;;;31.90;15.95;;;4.00;99.90;;;;;;5002861;28;20049;-59
2021/11/26 07:05:58;;;;;;;39.08;17.05;;;4.00;99.90;;;;;;5003143;28;20527;-57
2021/11/26 07:08:24;;;;;;;30.27;12.65;;;4.00;99.90;;;;;;4999552;28;20105;-56
2021/11/26 07:10:50;;;;;;;49.30;24.20;;;4.00;99.90;;;;;;5005243;28;20471;-58
2021/11/26 07:13:16;;;;;;;74.22;36.03;;;4.00;99.90;;;;;;5001013;28;20069;-57
2021/11/26 07:15:42;;;;;;;47.15;25.15;;;4.00;99.90;;;;;;5002833;28;20064;-56
2021/11/26 07:18:07;;;;;;;36.13;18.27;;;4.00;99.90;;;;;;5002321;28;20038;-59
2021/11/26 07:20:33;;;;;;;28.05;14.00;;;3.90;99.90;;;;;;5001132;28;20125;-56
2021/11/26 07:22:59;;;;;;;36.95;18.08;;;3.90;99.90;;;;;;4997573;28;20084;-56
2021/11/26 07:25:26;;;;;;;34.50;17.77;;;3.90;99.90;;;;;;5000725;28;20031;-56
2021/11/26 07:27:52;;;;;;;25.20;12.70;;;3.90;99.90;;;;;;5008256;28;20029;-58
2021/11/26 07:30:18;;;;;;;22.83;11.07;;;3.90;99.90;;;;;;5003396;28;20035;-55
2021/11/26 07:32:44;;;;;;;20.65;11.23;;;3.90;99.90;;;;;;4999609;28;20077;-57
2021/11/26 07:35:09;;;;;;;16.70;9.07;;;3.90;99.90;;;;;;5002554;28;20026;-56
2021/11/26 07:37:36;;;;;;;15.50;9.10;;;4.00;99.90;;;;;;4997173;28;20719;-58
2021/11/26 07:40:06;;;;;;;18.35;8.55;;;4.00;99.90;;;;;;4996952;28;20026;-58
2021/11/26 07:42:31;;;;;;;13.02;6.28;;;4.00;99.90;;;;;;5005451;28;20077;-58
2021/11/26 07:44:57;;;;;;;13.65;6.63;;;3.90;99.90;;;;;;5008030;28;20081;-58
2021/11/26 07:47:23;;;;;;;11.60;6.88;;;3.80;99.90;;;;;;5001848;28;20558;-55
2021/11/26 07:49:52;;;;;;;10.73;5.60;;;3.80;99.90;;;;;;5003240;28;20045;-56
2021/11/26 07:52:19;;;;;;;8.55;5.63;;;3.70;99.90;;;;;;5005909;28;20022;-56
2021/11/26 07:54:44;;;;;;;11.48;6.63;;;3.70;99.90;;;;;;5000468;28;20029;-58
2021/11/26 07:57:11;;;;;;;13.23;7.32;;;3.70;99.90;;;;;;4997197;28;20460;-59
2021/11/26 07:59:37;;;;;;;14.85;7.47;;;3.70;99.90;;;;;;5009586;28;20101;-58
2021/11/26 08:02:03;;;;;;;11.15;7.45;;;3.70;99.90;;;;;;4991037;28;20046;-58
2021/11/26 08:04:30;;;;;;;13.10;8.23;;;3.80;99.90;;;;;;5007312;28;20497;-57
2021/11/26 08:06:55;;;;;;;13.18;7.60;;;3.80;99.90;;;;;;5004677;28;20030;-60
2021/11/26 08:09:22;;;;;;;11.25;7.53;;;3.70;99.90;;;;;;5002445;28;20547;-59
2021/11/26 08:11:48;;;;;;;17.45;9.43;;;3.70;99.90;;;;;;5002484;28;20141;-57
2021/11/26 08:14:15;;;;;;;13.98;7.53;;;3.70;99.90;;;;;;5000382;28;20529;-56
2021/11/26 08:16:41;;;;;;;11.25;6.30;;;3.70;99.90;;;;;;5006121;28;20041;-57
2021/11/26 08:19:08;;;;;;;11.05;7.38;;;3.70;99.90;;;;;;5008661;28;20100;-56
2021/11/26 08:21:34;;;;;;;17.52;9.13;;;3.60;99.90;;;;;;5004221;28;20038;-60
2021/11/26 08:24:02;;;;;;;11.82;6.85;;;3.60;99.90;;;;;;4998074;28;20068;-57
2021/11/26 08:26:28;;;;;;;8.52;4.65;;;3.70;99.90;;;;;;5002843;28;20034;-58
2021/11/26 08:28:54;;;;;;;9.02;4.60;;;3.60;99.90;;;;;;5005816;28;20032;-57
2021/11/26 08:31:20;;;;;;;13.05;5.50;;;3.60;99.90;;;;;;4998116;28;20026;-56
2021/11/26 08:33:45;;;;;;;17.33;11.65;;;3.60;99.90;;;;;;5000148;28;20026;-54
2021/11/26 08:36:11;;;;;;;21.70;14.95;;;3.60;99.90;;;;;;4998343;28;20038;-57
2021/11/26 08:38:37;;;;;;;17.98;11.15;;;3.70;99.90;;;;;;4993538;28;20039;-57
2021/11/26 08:41:02;;;;;;;8.45;5.38;;;3.70;99.90;;;;;;4996138;28;20487;-57
2021/11/26 08:43:28;;;;;;;9.13;5.40;;;3.70;99.90;;;;;;4997840;28;20058;-55
2021/11/26 08:45:54;;;;;;;9.73;6.70;;;3.80;99.90;;;;;;4998176;28;20034;-57
2021/11/26 08:48:20;;;;;;;10.70;6.13;;;3.80;99.90;;;;;;4994883;28;20027;-57
2021/11/26 08:50:46;;;;;;;8.70;5.72;;;3.80;99.90;;;;;;4998936;28;20030;-56
2021/11/26 08:53:12;;;;;;;7.82;4.60;;;3.80;99.90;;;;;;5001668;28;20038;-58
2021/11/26 08:55:39;;;;;;;8.95;5.15;;;3.80;99.90;;;;;;5001701;28;20107;-56
2021/11/26 08:58:06;;;;;;;13.02;6.63;;;3.80;99.90;;;;;;5003211;28;20029;-57
2021/11/26 09:00:35;;;;;;;12.13;5.43;;;3.80;99.90;;;;;;4982858;28;20050;-57
2021/11/26 09:03:03;;;;;;;9.93;6.65;;;3.80;99.90;;;;;;5002332;28;20034;-56
2021/11/26 09:05:29;;;;;;;15.32;10.05;;;3.80;99.90;;;;;;4999169;28;20030;-57
2021/11/26 09:08:04;;;;;;;10.50;7.15;;;3.90;99.90;;;;;;5003358;28;20049;-56
2021/11/26 09:10:36;;;;;;;7.82;4.63;;;3.90;99.90;;;;;;5006590;28;20458;-59
2021/11/26 09:13:04;;;;;;;9.00;5.40;;;3.90;99.90;;;;;;4999408;28;20049;-58
2021/11/26 09:15:29;;;;;;;8.80;5.97;;;3.90;99.90;;;;;;4999169;28;20890;-56
2021/11/26 09:17:56;;;;;;;14.20;5.38;;;4.00;99.90;;;;;;5011570;28;20107;-59
2021/11/26 09:20:22;;;;;;;9.07;5.28;;;4.10;99.90;;;;;;5007813;28;20041;-56
2021/11/26 09:22:47;;;;;;;8.75;5.05;;;4.20;99.90;;;;;;5016204;28;20502;-57
2021/11/26 09:25:14;;;;;;;13.73;7.57;;;4.30;99.90;;;;;;5005674;28;20093;-58
2021/11/26 09:27:41;;;;;;;11.07;5.63;;;4.30;99.90;;;;;;4997932;28;20681;-56
2021/11/26 09:30:19;;;;;;;9.65;4.95;;;4.30;99.90;;;;;;5007826;28;20033;-59
2021/11/26 09:32:45;;;;;;;11.05;4.85;;;4.30;99.90;;;;;;5010292;28;20032;-57
2021/11/26 09:35:11;;;;;;;8.25;4.32;;;4.40;99.90;;;;;;4999357;28;20022;-56
2021/11/26 09:37:37;;;;;;;9.98;5.00;;;4.40;99.90;;;;;;5006408;28;20118;-58
2021/11/26 09:40:05;;;;;;;6.32;4.63;;;4.40;99.90;;;;;;5002108;28;20030;-55
2021/11/26 09:42:31;;;;;;;8.23;4.68;;;4.50;99.90;;;;;;5014734;28;20030;-57
2021/11/26 09:44:59;;;;;;;7.00;4.80;;;4.50;99.90;;;;;;5001254;28;20368;-58
2021/11/26 09:47:25;;;;;;;9.40;5.88;;;4.50;99.90;;;;;;5008172;28;20034;-57
2021/11/26 09:49:51;;;;;;;11.13;5.38;;;4.50;99.90;;;;;;5013762;28;20533;-57
2021/11/26 09:52:17;;;;;;;9.98;4.43;;;4.50;99.90;;;;;;5009168;28;20030;-59
2021/11/26 09:54:46;;;;;;;8.70;5.00;;;4.50;99.90;;;;;;5017379;28;20483;-54
2021/11/26 09:57:12;;;;;;;9.48;4.82;;;4.50;99.90;;;;;;5000735;28;20030;-56
2021/11/26 09:59:42;;;;;;;8.48;4.97;;;4.60;99.90;;;;;;5002839;28;20557;-58
2021/11/26 10:02:18;;;;;;;9.02;6.15;;;4.50;99.90;;;;;;4991119;28;20458;-56
2021/11/26 10:04:55;;;;;;;14.27;7.10;;;4.50;99.90;;;;;;5005634;28;20025;-52
2021/11/26 10:07:21;;;;;;;12.52;6.75;;;4.40;99.90;;;;;;5015507;28;20037;-59
2021/11/26 10:09:46;;;;;;;19.52;7.00;;;4.50;99.90;;;;;;5006620;28;20630;-55
2021/11/26 10:12:14;;;;;;;14.68;7.60;;;4.60;99.90;;;;;;5007187;28;20640;-56
2021/11/26 10:14:44;;;;;;;13.85;7.10;;;4.60;99.90;;;;;;5013430;28;20033;-57
2021/11/26 10:17:15;;;;;;;15.45;8.05;;;4.70;99.90;;;;;;5008535;28;20058;-54
2021/11/26 10:19:47;;;;;;;29.30;16.80;;;4.70;99.90;;;;;;5006193;28;20022;-58
2021/11/26 10:22:34;;;;;;;41.65;19.92;;;4.80;99.90;;;;;;4997944;28;20053;-57
2021/11/26 10:25:06;;;;;;;21.65;11.90;;;4.80;99.90;;;;;;5005738;28;20487;-57
2021/11/26 10:27:38;;;;;;;16.40;7.38;;;4.80;99.90;;;;;;5005306;28;20108;-58
2021/11/26 10:30:28;;;;;;;28.95;14.13;;;4.80;99.90;;;;;;5002176;28;20594;-58
2021/11/26 10:33:01;;;;;;;29.17;12.48;;;4.90;99.90;;;;;;4998878;28;20037;-57
2021/11/26 10:35:37;;;;;;;25.85;13.50;;;4.80;99.90;;;;;;5005519;28;20123;-57
2021/11/26 10:38:09;;;;;;;22.95;10.77;;;4.90;99.90;;;;;;5003973;28;20030;-57
2021/11/26 10:40:37;;;;;;;23.02;12.27;;;4.90;99.90;;;;;;5003255;28;20055;-57
2021/11/26 10:43:10;;;;;;;32.85;16.58;;;4.90;99.90;;;;;;5013209;28;20034;-58
2021/11/26 10:58:59;;;;;;;21.95;9.10;;;5.10;99.90;;;;;;5008170;28;20072;-60
2021/11/26 11:01:24;;;;;;;26.40;9.50;;;5.10;99.90;;;;;;4994579;28;20495;-60
2021/11/26 11:03:51;;;;;;;18.05;8.82;;;5.10;99.90;;;;;;4995339;28;20037;-60
2021/11/26 11:06:19;;;;;;;18.27;9.60;;;5.00;99.90;;;;;;5000150;28;20118;-57
2021/11/26 11:08:46;;;;;;;23.70;9.13;;;5.10;99.90;;;;;;5002232;28;20025;-56
2021/11/26 11:11:12;;;;;;;24.60;11.27;;;5.10;99.90;;;;;;5017534;28;20483;-57
2021/11/26 11:13:37;;;;;;;19.35;9.82;;;5.20;99.90;;;;;;5011595;28;20117;-56
2021/11/26 11:16:09;;;;;;;18.00;8.13;;;5.20;99.90;;;;;;5003549;28;20109;-55
2021/11/26 11:18:39;;;;;;;30.05;15.35;;;5.20;99.90;;;;;;5015250;28;20037;-57
2021/11/26 11:21:06;;;;;;;25.13;13.00;;;5.20;99.90;;;;;;5013736;28;20050;-56
2021/11/26 11:23:32;;;;;;;28.20;9.20;;;5.20;99.90;;;;;;5015422;28;20018;-58
2021/11/26 11:25:59;;;;;;;13.13;7.82;;;5.20;99.90;;;;;;5012238;28;20053;-57
2021/11/26 11:28:25;;;;;;;20.33;9.02;;;5.30;99.90;;;;;;5002677;28;20502;-58
2021/11/26 11:30:51;;;;;;;27.55;12.65;;;5.30;99.90;;;;;;5013600;28;20024;-58
2021/11/26 11:33:17;;;;;;;16.38;7.65;;;5.40;99.90;;;;;;5006001;28;20034;-57
2021/11/26 11:35:46;;;;;;;36.45;15.82;;;5.50;99.90;;;;;;5017546;28;20116;-59
2021/11/26 11:38:14;;;;;;;32.03;15.68;;;5.50;99.90;;;;;;5014576;28;20029;-59
2021/11/26 11:40:43;;;;;;;14.80;6.20;;;5.50;99.90;;;;;;5022234;28;20029;-58
2021/11/26 11:43:13;;;;;;;17.35;5.28;;;5.60;99.90;;;;;;5018825;28;20035;-58
2021/11/26 11:45:52;;;;;;;15.18;4.72;;;5.60;99.90;;;;;;5020052;28;20032;-57
2021/11/26 11:48:33;;;;;;;16.30;6.45;;;5.60;99.90;;;;;;5013282;28;20395;-59
2021/11/26 11:50:59;;;;;;;10.13;5.22;;;5.70;99.90;;;;;;5002480;28;20022;-58
2021/11/26 11:53:32;;;;;;;18.63;7.93;;;5.70;99.90;;;;;;5013534;28;20026;-57
2021/11/26 11:56:07;;;;;;;28.35;13.65;;;5.80;99.90;;;;;;5019382;28;20091;-58
2021/11/26 11:58:49;;;;;;;32.00;13.45;;;5.80;99.90;;;;;;5025876;28;20107;-57
2021/11/26 12:01:23;;;;;;;36.83;11.57;;;5.80;99.90;;;;;;4996725;28;20088;-58
2021/11/26 12:03:52;;;;;;;37.35;14.85;;;5.80;99.90;;;;;;5005089;28;20022;-56
2021/11/26 12:06:17;;;;;;;29.85;11.27;;;5.80;99.90;;;;;;5008521;28;20033;-58
2021/11/26 12:08:55;;;;;;;29.20;12.93;;;5.90;99.90;;;;;;5010620;28;20398;-56
2021/11/26 12:11:29;;;;;;;21.80;8.30;;;5.90;99.90;;;;;;5018556;28;20014;-59
2021/11/26 12:14:00;;;;;;;58.20;22.48;;;6.00;99.90;;;;;;5006818;28;20087;-57
2021/11/26 12:16:26;;;;;;;21.83;8.27;;;6.00;99.90;;;;;;5010266;28;20065;-56
2021/11/26 12:18:53;;;;;;;9.95;3.78;;;5.90;99.90;;;;;;5015417;28;20447;-57
2021/11/26 12:21:32;;;;;;;12.35;3.17;;;5.90;99.90;;;;;;5016513;28;20521;-57
2021/11/26 12:24:13;;;;;;;13.02;4.35;;;5.90;99.90;;;;;;5020193;28;20059;-57
2021/11/26 12:26:54;;;;;;;10.77;2.88;;;5.80;99.90;;;;;;5009400;28;20021;-57
2021/11/26 12:29:30;;;;;;;10.70;3.28;;;5.70;99.90;;;;;;5006873;28;20018;-59
2021/11/26 12:32:09;;;;;;;13.00;2.85;;;5.60;99.90;;;;;;5012190;28;20097;-56
2021/11/26 12:34:46;;;;;;;8.50;2.75;;;5.70;99.90;;;;;;5011244;28;20447;-57
2021/11/26 12:37:27;;;;;;;7.80;2.63;;;5.70;99.90;;;;;;5017138;28;20212;-56
2021/11/26 12:39:56;;;;;;;9.05;2.35;;;5.80;99.90;;;;;;5009378;28;20387;-56
2021/11/26 12:42:22;;;;;;;10.18;2.38;;;5.80;99.90;;;;;;5012527;28;20033;-57
2021/11/26 12:44:56;;;;;;;8.68;2.00;;;5.70;99.90;;;;;;5005982;28;20459;-58
2021/11/26 12:47:22;;;;;;;8.25;2.17;;;5.80;99.90;;;;;;5005186;28;20033;-57
2021/11/26 12:52:16;;;;;;;9.27;2.20;;;5.60;99.90;;;;;;5008122;28;20546;-59
2021/11/26 12:54:48;;;;;;;9.75;2.10;;;5.60;99.90;;;;;;5000652;28;20022;-57
2021/11/26 12:57:30;;;;;;;4.72;2.25;;;5.60;99.90;;;;;;5002841;28;20487;-58